sensor_id;sensor_type;location;lat;lon;timestamp;P1;durP1;ratioP1;P2;durP2;ratioP2
79122;SDS011;68526;44.600;26.032;2024-03-06T00:00:00;36.80;;;22.50;;
79122;SDS011;68526;44.600;26.032;2024-03-06T00:00:19;38.55;;;22.50;;
79122;SDS011;68526;44.600;26.032;2024-03-06T00:00:35;39.33;;;22.75;;
79122;SDS011;68526;44.600;26.032;2024-03-06T00:00:51;36.78;;;22.70;;
79122;SDS011;68526;44.600;26.032;2024-03-06T00:01:07;38.92;;;23.17;;
79122;SDS011;68526;44.600;26.032;2024-03-06T00:01:23;39.20;;;22.97;;
79122;SDS011;68526;44.600;26.032;2024-03-06T00:01:39;36.45;;;22.38;;
79122;SDS011;68526;44.600;26.032;2024-03-06T00:01:55;36.33;;;22.50;;
79122;SDS011;68526;44.600;26.032;2024-03-06T00:02:12;38.30;;;22.23;;
79122;SDS011;68526;44.600;26.032;2024-03-06T00:02:30;38.63;;;22.67;;
79122;SDS011;68526;44.600;26.032;2024-03-06T00:02:46;40.70;;;23.27;;
79122;SDS011;68526;44.600;26.032;2024-03-06T00:03:02;41.95;;;23.77;;
79122;SDS011;68526;44.600;26.032;2024-03-06T00:03:18;39.83;;;23.67;;
79122;SDS011;68526;44.600;26.032;2024-03-06T00:03:34;39.88;;;23.27;;
79122;SDS011;68526;44.600;26.032;2024-03-06T00:03:50;39.30;;;23.30;;
79122;SDS011;68526;44.600;26.032;2024-03-06T00:04:06;38.40;;;22.95;;
79122;SDS011;68526;44.600;26.032;2024-03-06T00:04:23;39.22;;;23.10;;
79122;SDS011;68526;44.600;26.032;2024-03-06T00:04:39;38.28;;;22.77;;
79122;SDS011;68526;44.600;26.032;2024-03-06T00:04:55;36.38;;;21.60;;
79122;SDS011;68526;44.600;26.032;2024-03-06T00:05:12;36.08;;;21.65;;
79122;SDS011;68526;44.600;26.032;2024-03-06T00:05:28;36.50;;;22.60;;
79122;SDS011;68526;44.600;26.032;2024-03-06T00:05:44;36.88;;;22.42;;
79122;SDS011;68526;44.600;26.032;2024-03-06T00:06:00;38.85;;;22.52;;
79122;SDS011;68526;44.600;26.032;2024-03-06T00:06:16;40.25;;;23.00;;
79122;SDS011;68526;44.600;26.032;2024-03-06T00:06:33;37.45;;;22.40;;
79122;SDS011;68526;44.600;26.032;2024-03-06T00:06:49;37.00;;;22.15;;
79122;SDS011;68526;44.600;26.032;2024-03-06T00:07:07;38.70;;;22.67;;
79122;SDS011;68526;44.600;26.032;2024-03-06T00:07:23;36.97;;;22.53;;
79122;SDS011;68526;44.600;26.032;2024-03-06T00:07:39;35.73;;;21.83;;
79122;SDS011;68526;44.600;26.032;2024-03-06T00:07:55;35.38;;;21.83;;
79122;SDS011;68526;44.600;26.032;2024-03-06T00:08:11;36.78;;;22.48;;
79122;SDS011;68526;44.600;26.032;2024-03-06T00:08:28;38.15;;;22.60;;
79122;SDS011;68526;44.600;26.032;2024-03-06T00:08:44;38.55;;;22.25;;
79122;SDS011;68526;44.600;26.032;2024-03-06T00:09:00;39.47;;;21.85;;
79122;SDS011;68526;44.600;26.032;2024-03-06T00:09:17;38.05;;;21.77;;
79122;SDS011;68526;44.600;26.032;2024-03-06T00:09:33;37.10;;;22.13;;
79122;SDS011;68526;44.600;26.032;2024-03-06T00:09:50;35.38;;;21.33;;
79122;SDS011;68526;44.600;26.032;2024-03-06T00:10:06;36.70;;;21.58;;
79122;SDS011;68526;44.600;26.032;2024-03-06T00:10:24;36.63;;;21.23;;
79122;SDS011;68526;44.600;26.032;2024-03-06T00:10:40;38.22;;;21.40;;
79122;SDS011;68526;44.600;26.032;2024-03-06T00:10:56;39.03;;;21.50;;
79122;SDS011;68526;44.600;26.032;2024-03-06T00:11:12;37.70;;;21.02;;
79122;SDS011;68526;44.600;26.032;2024-03-06T00:11:28;37.92;;;22.13;;
79122;SDS011;68526;44.600;26.032;2024-03-06T00:11:44;40.08;;;22.30;;
79122;SDS011;68526;44.600;26.032;2024-03-06T00:12:00;38.92;;;21.83;;
79122;SDS011;68526;44.600;26.032;2024-03-06T00:12:16;37.45;;;21.67;;
79122;SDS011;68526;44.600;26.032;2024-03-06T00:12:33;37.97;;;21.17;;
79122;SDS011;68526;44.600;26.032;2024-03-06T00:12:49;36.38;;;21.08;;
79122;SDS011;68526;44.600;26.032;2024-03-06T00:13:06;37.08;;;21.17;;
79122;SDS011;68526;44.600;26.032;2024-03-06T00:13:22;39.03;;;21.33;;
79122;SDS011;68526;44.600;26.032;2024-03-06T00:13:38;38.15;;;21.33;;
79122;SDS011;68526;44.600;26.032;2024-03-06T00:13:54;36.33;;;21.27;;
79122;SDS011;68526;44.600;26.032;2024-03-06T00:14:10;35.70;;;21.70;;
79122;SDS011;68526;44.600;26.032;2024-03-06T00:14:28;36.63;;;21.70;;
79122;SDS011;68526;44.600;26.032;2024-03-06T00:14:44;40.50;;;21.95;;
79122;SDS011;68526;44.600;26.032;2024-03-06T00:15:00;41.85;;;22.08;;
79122;SDS011;68526;44.600;26.032;2024-03-06T00:15:17;37.03;;;21.15;;
79122;SDS011;68526;44.600;26.032;2024-03-06T00:15:33;37.17;;;21.63;;
79122;SDS011;68526;44.600;26.032;2024-03-06T00:15:49;36.85;;;21.92;;
79122;SDS011;68526;44.600;26.032;2024-03-06T00:16:06;34.50;;;21.25;;
79122;SDS011;68526;44.600;26.032;2024-03-06T00:16:22;35.47;;;20.98;;
79122;SDS011;68526;44.600;26.032;2024-03-06T00:16:38;36.30;;;21.02;;
79122;SDS011;68526;44.600;26.032;2024-03-06T00:16:54;35.45;;;20.77;;
79122;SDS011;68526;44.600;26.032;2024-03-06T00:17:11;36.92;;;20.52;;
79122;SDS011;68526;44.600;26.032;2024-03-06T00:17:27;35.93;;;20.77;;
79122;SDS011;68526;44.600;26.032;2024-03-06T00:17:44;35.60;;;21.02;;
79122;SDS011;68526;44.600;26.032;2024-03-06T00:18:00;35.75;;;20.38;;
79122;SDS011;68526;44.600;26.032;2024-03-06T00:18:19;35.83;;;20.42;;
79122;SDS011;68526;44.600;26.032;2024-03-06T00:18:35;37.20;;;21.33;;
79122;SDS011;68526;44.600;26.032;2024-03-06T00:18:51;37.28;;;21.35;;
79122;SDS011;68526;44.600;26.032;2024-03-06T00:19:07;37.42;;;21.23;;
79122;SDS011;68526;44.600;26.032;2024-03-06T00:19:23;36.60;;;21.40;;
79122;SDS011;68526;44.600;26.032;2024-03-06T00:19:39;35.97;;;21.00;;
79122;SDS011;68526;44.600;26.032;2024-03-06T00:19:55;36.08;;;20.70;;
79122;SDS011;68526;44.600;26.032;2024-03-06T00:20:11;36.63;;;20.75;;
79122;SDS011;68526;44.600;26.032;2024-03-06T00:20:29;37.65;;;20.77;;
79122;SDS011;68526;44.600;26.032;2024-03-06T00:20:45;38.08;;;21.38;;
79122;SDS011;68526;44.600;26.032;2024-03-06T00:21:01;38.25;;;21.85;;
79122;SDS011;68526;44.600;26.032;2024-03-06T00:21:17;35.25;;;20.63;;
79122;SDS011;68526;44.600;26.032;2024-03-06T00:21:33;36.33;;;20.38;;
79122;SDS011;68526;44.600;26.032;2024-03-06T00:21:51;38.70;;;20.55;;
79122;SDS011;68526;44.600;26.032;2024-03-06T00:22:07;36.67;;;21.05;;
79122;SDS011;68526;44.600;26.032;2024-03-06T00:22:25;35.15;;;20.80;;
79122;SDS011;68526;44.600;26.032;2024-03-06T00:22:41;37.45;;;21.23;;
79122;SDS011;68526;44.600;26.032;2024-03-06T00:22:57;38.97;;;21.90;;
79122;SDS011;68526;44.600;26.032;2024-03-06T00:23:14;38.85;;;21.23;;
79122;SDS011;68526;44.600;26.032;2024-03-06T00:23:30;38.70;;;20.85;;
79122;SDS011;68526;44.600;26.032;2024-03-06T00:23:46;36.50;;;20.67;;
79122;SDS011;68526;44.600;26.032;2024-03-06T00:24:02;35.42;;;20.73;;
79122;SDS011;68526;44.600;26.032;2024-03-06T00:24:20;36.90;;;21.33;;
79122;SDS011;68526;44.600;26.032;2024-03-06T00:24:36;36.03;;;20.92;;
79122;SDS011;68526;44.600;26.032;2024-03-06T00:24:52;36.30;;;21.55;;
79122;SDS011;68526;44.600;26.032;2024-03-06T00:25:08;34.60;;;21.70;;
79122;SDS011;68526;44.600;26.032;2024-03-06T00:25:24;33.90;;;21.17;;
79122;SDS011;68526;44.600;26.032;2024-03-06T00:25:40;35.88;;;21.10;;
79122;SDS011;68526;44.600;26.032;2024-03-06T00:25:57;35.83;;;20.98;;
79122;SDS011;68526;44.600;26.032;2024-03-06T00:26:13;36.03;;;21.42;;
79122;SDS011;68526;44.600;26.032;2024-03-06T00:26:29;36.65;;;21.27;;
79122;SDS011;68526;44.600;26.032;2024-03-06T00:26:45;36.75;;;21.75;;
79122;SDS011;68526;44.600;26.032;2024-03-06T00:27:02;37.45;;;21.83;;
79122;SDS011;68526;44.600;26.032;2024-03-06T00:27:19;36.85;;;22.25;;
79122;SDS011;68526;44.600;26.032;2024-03-06T00:27:35;35.67;;;22.00;;
79122;SDS011;68526;44.600;26.032;2024-03-06T00:27:52;37.20;;;21.58;;
79122;SDS011;68526;44.600;26.032;2024-03-06T00:28:09;36.70;;;21.58;;
79122;SDS011;68526;44.600;26.032;2024-03-06T00:28:25;33.75;;;21.13;;
79122;SDS011;68526;44.600;26.032;2024-03-06T00:28:41;34.83;;;21.60;;
79122;SDS011;68526;44.600;26.032;2024-03-06T00:28:57;36.08;;;21.98;;
79122;SDS011;68526;44.600;26.032;2024-03-06T00:29:13;37.47;;;22.02;;
79122;SDS011;68526;44.600;26.032;2024-03-06T00:29:30;37.75;;;21.85;;
79122;SDS011;68526;44.600;26.032;2024-03-06T00:29:47;35.95;;;20.85;;
79122;SDS011;68526;44.600;26.032;2024-03-06T00:30:04;35.17;;;21.23;;
79122;SDS011;68526;44.600;26.032;2024-03-06T00:30:20;36.70;;;21.73;;
79122;SDS011;68526;44.600;26.032;2024-03-06T00:30:37;38.30;;;21.85;;
79122;SDS011;68526;44.600;26.032;2024-03-06T00:30:53;38.63;;;21.90;;
79122;SDS011;68526;44.600;26.032;2024-03-06T00:31:09;37.22;;;21.13;;
79122;SDS011;68526;44.600;26.032;2024-03-06T00:31:25;38.50;;;21.95;;
79122;SDS011;68526;44.600;26.032;2024-03-06T00:31:42;38.90;;;22.38;;
79122;SDS011;68526;44.600;26.032;2024-03-06T00:31:58;37.17;;;21.48;;
79122;SDS011;68526;44.600;26.032;2024-03-06T00:32:14;38.10;;;21.13;;
79122;SDS011;68526;44.600;26.032;2024-03-06T00:32:31;36.38;;;21.23;;
79122;SDS011;68526;44.600;26.032;2024-03-06T00:32:48;37.10;;;22.25;;
79122;SDS011;68526;44.600;26.032;2024-03-06T00:33:04;38.65;;;22.50;;
79122;SDS011;68526;44.600;26.032;2024-03-06T00:33:20;37.38;;;22.05;;
79122;SDS011;68526;44.600;26.032;2024-03-06T00:33:37;35.28;;;21.70;;
79122;SDS011;68526;44.600;26.032;2024-03-06T00:33:53;35.25;;;21.10;;
79122;SDS011;68526;44.600;26.032;2024-03-06T00:34:09;34.40;;;20.92;;
79122;SDS011;68526;44.600;26.032;2024-03-06T00:34:26;37.47;;;21.50;;
79122;SDS011;68526;44.600;26.032;2024-03-06T00:34:42;39.72;;;22.13;;
79122;SDS011;68526;44.600;26.032;2024-03-06T00:34:58;38.00;;;22.33;;
79122;SDS011;68526;44.600;26.032;2024-03-06T00:35:15;35.67;;;21.88;;
79122;SDS011;68526;44.600;26.032;2024-03-06T00:35:31;35.97;;;21.67;;
79122;SDS011;68526;44.600;26.032;2024-03-06T00:35:47;35.88;;;21.63;;
79122;SDS011;68526;44.600;26.032;2024-03-06T00:36:04;35.60;;;21.67;;
79122;SDS011;68526;44.600;26.032;2024-03-06T00:36:20;37.10;;;21.48;;
79122;SDS011;68526;44.600;26.032;2024-03-06T00:36:37;36.92;;;21.00;;
79122;SDS011;68526;44.600;26.032;2024-03-06T00:36:53;37.42;;;20.98;;
79122;SDS011;68526;44.600;26.032;2024-03-06T00:37:10;38.42;;;21.38;;
79122;SDS011;68526;44.600;26.032;2024-03-06T00:37:26;37.40;;;21.40;;
79122;SDS011;68526;44.600;26.032;2024-03-06T00:37:42;37.78;;;20.67;;
79122;SDS011;68526;44.600;26.032;2024-03-06T00:37:58;38.75;;;20.48;;
79122;SDS011;68526;44.600;26.032;2024-03-06T00:38:17;40.00;;;20.90;;
79122;SDS011;68526;44.600;26.032;2024-03-06T00:38:33;39.50;;;21.10;;
79122;SDS011;68526;44.600;26.032;2024-03-06T00:38:49;38.17;;;21.60;;
79122;SDS011;68526;44.600;26.032;2024-03-06T00:39:05;37.00;;;21.15;;
79122;SDS011;68526;44.600;26.032;2024-03-06T00:39:23;38.22;;;21.55;;
79122;SDS011;68526;44.600;26.032;2024-03-06T00:39:39;37.45;;;21.33;;
79122;SDS011;68526;44.600;26.032;2024-03-06T00:39:55;37.70;;;20.70;;
79122;SDS011;68526;44.600;26.032;2024-03-06T00:40:12;38.10;;;21.08;;
79122;SDS011;68526;44.600;26.032;2024-03-06T00:40:28;38.38;;;21.52;;
79122;SDS011;68526;44.600;26.032;2024-03-06T00:40:46;37.35;;;21.33;;
79122;SDS011;68526;44.600;26.032;2024-03-06T00:41:02;35.72;;;20.67;;
79122;SDS011;68526;44.600;26.032;2024-03-06T00:41:18;36.13;;;20.30;;
79122;SDS011;68526;44.600;26.032;2024-03-06T00:41:35;34.05;;;20.20;;
79122;SDS011;68526;44.600;26.032;2024-03-06T00:41:52;34.22;;;20.35;;
79122;SDS011;68526;44.600;26.032;2024-03-06T00:42:08;35.63;;;20.38;;
79122;SDS011;68526;44.600;26.032;2024-03-06T00:42:26;35.55;;;19.83;;
79122;SDS011;68526;44.600;26.032;2024-03-06T00:42:42;33.50;;;19.20;;
79122;SDS011;68526;44.600;26.032;2024-03-06T00:42:58;33.03;;;19.70;;
79122;SDS011;68526;44.600;26.032;2024-03-06T00:43:14;34.75;;;19.77;;
79122;SDS011;68526;44.600;26.032;2024-03-06T00:43:31;35.25;;;20.30;;
79122;SDS011;68526;44.600;26.032;2024-03-06T00:43:48;33.05;;;20.05;;
79122;SDS011;68526;44.600;26.032;2024-03-06T00:44:04;34.03;;;20.08;;
79122;SDS011;68526;44.600;26.032;2024-03-06T00:44:21;35.15;;;20.17;;
79122;SDS011;68526;44.600;26.032;2024-03-06T00:44:37;33.05;;;19.30;;
79122;SDS011;68526;44.600;26.032;2024-03-06T00:44:53;33.75;;;20.08;;
79122;SDS011;68526;44.600;26.032;2024-03-06T00:45:09;38.13;;;21.15;;
79122;SDS011;68526;44.600;26.032;2024-03-06T00:45:25;35.83;;;19.90;;
79122;SDS011;68526;44.600;26.032;2024-03-06T00:45:42;34.78;;;20.38;;
79122;SDS011;68526;44.600;26.032;2024-03-06T00:45:58;34.57;;;20.47;;
79122;SDS011;68526;44.600;26.032;2024-03-06T00:46:15;32.95;;;19.30;;
79122;SDS011;68526;44.600;26.032;2024-03-06T00:46:31;33.70;;;18.92;;
79122;SDS011;68526;44.600;26.032;2024-03-06T00:46:47;33.45;;;18.58;;
79122;SDS011;68526;44.600;26.032;2024-03-06T00:47:03;33.03;;;19.02;;
79122;SDS011;68526;44.600;26.032;2024-03-06T00:47:19;36.55;;;19.80;;
79122;SDS011;68526;44.600;26.032;2024-03-06T00:47:36;34.10;;;19.73;;
79122;SDS011;68526;44.600;26.032;2024-03-06T00:47:55;32.05;;;18.77;;
79122;SDS011;68526;44.600;26.032;2024-03-06T00:48:11;32.00;;;18.58;;
79122;SDS011;68526;44.600;26.032;2024-03-06T00:48:27;34.15;;;18.63;;
79122;SDS011;68526;44.600;26.032;2024-03-06T00:48:43;33.30;;;18.80;;
79122;SDS011;68526;44.600;26.032;2024-03-06T00:48:59;31.88;;;19.15;;
79122;SDS011;68526;44.600;26.032;2024-03-06T00:49:15;31.90;;;18.85;;
79122;SDS011;68526;44.600;26.032;2024-03-06T00:49:31;32.42;;;18.92;;
79122;SDS011;68526;44.600;26.032;2024-03-06T00:49:47;33.60;;;19.55;;
79122;SDS011;68526;44.600;26.032;2024-03-06T00:50:05;34.78;;;19.40;;
79122;SDS011;68526;44.600;26.032;2024-03-06T00:50:22;36.28;;;19.55;;
79122;SDS011;68526;44.600;26.032;2024-03-06T00:50:39;34.92;;;19.33;;
79122;SDS011;68526;44.600;26.032;2024-03-06T00:50:55;32.40;;;18.35;;
79122;SDS011;68526;44.600;26.032;2024-03-06T00:51:11;31.58;;;18.63;;
79122;SDS011;68526;44.600;26.032;2024-03-06T00:51:27;32.28;;;18.83;;
79122;SDS011;68526;44.600;26.032;2024-03-06T00:51:43;33.55;;;18.73;;
79122;SDS011;68526;44.600;26.032;2024-03-06T00:52:00;34.63;;;18.98;;
79122;SDS011;68526;44.600;26.032;2024-03-06T00:52:16;34.72;;;19.08;;
79122;SDS011;68526;44.600;26.032;2024-03-06T00:52:32;33.90;;;18.90;;
79122;SDS011;68526;44.600;26.032;2024-03-06T00:52:48;32.80;;;18.38;;
79122;SDS011;68526;44.600;26.032;2024-03-06T00:53:05;32.67;;;18.43;;
79122;SDS011;68526;44.600;26.032;2024-03-06T00:53:21;30.33;;;18.60;;
79122;SDS011;68526;44.600;26.032;2024-03-06T00:53:37;30.23;;;18.38;;
79122;SDS011;68526;44.600;26.032;2024-03-06T00:53:53;35.17;;;18.70;;
79122;SDS011;68526;44.600;26.032;2024-03-06T00:54:10;35.00;;;19.00;;
79122;SDS011;68526;44.600;26.032;2024-03-06T00:54:26;33.00;;;18.73;;
79122;SDS011;68526;44.600;26.032;2024-03-06T00:54:42;32.40;;;18.98;;
79122;SDS011;68526;44.600;26.032;2024-03-06T00:54:59;31.00;;;18.98;;
79122;SDS011;68526;44.600;26.032;2024-03-06T00:55:15;31.27;;;18.23;;
79122;SDS011;68526;44.600;26.032;2024-03-06T00:55:31;33.28;;;18.10;;
79122;SDS011;68526;44.600;26.032;2024-03-06T00:55:47;35.00;;;18.73;;
79122;SDS011;68526;44.600;26.032;2024-03-06T00:56:05;33.45;;;18.42;;
79122;SDS011;68526;44.600;26.032;2024-03-06T00:56:21;31.75;;;18.35;;
79122;SDS011;68526;44.600;26.032;2024-03-06T00:56:37;29.85;;;18.30;;
79122;SDS011;68526;44.600;26.032;2024-03-06T00:56:54;30.58;;;18.67;;
79122;SDS011;68526;44.600;26.032;2024-03-06T00:57:10;32.58;;;18.63;;
79122;SDS011;68526;44.600;26.032;2024-03-06T00:57:26;30.48;;;17.77;;
79122;SDS011;68526;44.600;26.032;2024-03-06T00:57:41;31.25;;;18.02;;
79122;SDS011;68526;44.600;26.032;2024-03-06T00:57:58;33.80;;;19.45;;
79122;SDS011;68526;44.600;26.032;2024-03-06T00:58:14;30.30;;;19.02;;
79122;SDS011;68526;44.600;26.032;2024-03-06T00:58:30;30.23;;;17.77;;
79122;SDS011;68526;44.600;26.032;2024-03-06T00:58:46;30.15;;;17.33;;
79122;SDS011;68526;44.600;26.032;2024-03-06T00:59:02;32.38;;;17.63;;
79122;SDS011;68526;44.600;26.032;2024-03-06T00:59:18;33.42;;;17.70;;
79122;SDS011;68526;44.600;26.032;2024-03-06T00:59:34;31.73;;;18.33;;
79122;SDS011;68526;44.600;26.032;2024-03-06T00:59:50;31.02;;;18.02;;
79122;SDS011;68526;44.600;26.032;2024-03-06T01:00:06;31.38;;;18.25;;
79122;SDS011;68526;44.600;26.032;2024-03-06T01:00:26;31.83;;;18.75;;
79122;SDS011;68526;44.600;26.032;2024-03-06T01:00:41;31.33;;;18.27;;
79122;SDS011;68526;44.600;26.032;2024-03-06T01:00:57;30.83;;;18.58;;
79122;SDS011;68526;44.600;26.032;2024-03-06T01:01:14;32.38;;;19.05;;
79122;SDS011;68526;44.600;26.032;2024-03-06T01:01:31;34.03;;;18.98;;
79122;SDS011;68526;44.600;26.032;2024-03-06T01:01:47;35.35;;;18.77;;
79122;SDS011;68526;44.600;26.032;2024-03-06T01:02:04;32.35;;;18.17;;
79122;SDS011;68526;44.600;26.032;2024-03-06T01:02:21;29.70;;;18.10;;
79122;SDS011;68526;44.600;26.032;2024-03-06T01:02:37;30.55;;;17.83;;
79122;SDS011;68526;44.600;26.032;2024-03-06T01:02:54;29.95;;;17.63;;
79122;SDS011;68526;44.600;26.032;2024-03-06T01:03:10;31.38;;;17.65;;
79122;SDS011;68526;44.600;26.032;2024-03-06T01:03:26;32.45;;;17.95;;
79122;SDS011;68526;44.600;26.032;2024-03-06T01:03:42;32.28;;;18.48;;
79122;SDS011;68526;44.600;26.032;2024-03-06T01:03:58;32.27;;;18.43;;
79122;SDS011;68526;44.600;26.032;2024-03-06T01:04:16;32.85;;;18.85;;
79122;SDS011;68526;44.600;26.032;2024-03-06T01:04:32;31.85;;;18.20;;
79122;SDS011;68526;44.600;26.032;2024-03-06T01:04:48;33.67;;;18.45;;
79122;SDS011;68526;44.600;26.032;2024-03-06T01:05:04;37.60;;;18.40;;
79122;SDS011;68526;44.600;26.032;2024-03-06T01:05:21;34.13;;;17.48;;
79122;SDS011;68526;44.600;26.032;2024-03-06T01:05:37;28.38;;;16.90;;
79122;SDS011;68526;44.600;26.032;2024-03-06T01:05:53;28.83;;;17.25;;
79122;SDS011;68526;44.600;26.032;2024-03-06T01:06:10;29.55;;;17.83;;
79122;SDS011;68526;44.600;26.032;2024-03-06T01:06:26;29.40;;;18.00;;
79122;SDS011;68526;44.600;26.032;2024-03-06T01:06:43;31.50;;;18.48;;
79122;SDS011;68526;44.600;26.032;2024-03-06T01:06:59;31.77;;;18.58;;
79122;SDS011;68526;44.600;26.032;2024-03-06T01:07:15;32.28;;;18.05;;
79122;SDS011;68526;44.600;26.032;2024-03-06T01:07:31;33.17;;;18.27;;
79122;SDS011;68526;44.600;26.032;2024-03-06T01:07:47;31.40;;;18.52;;
79122;SDS011;68526;44.600;26.032;2024-03-06T01:08:03;31.55;;;17.98;;
79122;SDS011;68526;44.600;26.032;2024-03-06T01:08:19;31.15;;;18.27;;
79122;SDS011;68526;44.600;26.032;2024-03-06T01:08:37;31.93;;;18.43;;
79122;SDS011;68526;44.600;26.032;2024-03-06T01:08:54;31.33;;;17.95;;
79122;SDS011;68526;44.600;26.032;2024-03-06T01:09:10;29.35;;;17.38;;
79122;SDS011;68526;44.600;26.032;2024-03-06T01:09:26;29.70;;;17.48;;
79122;SDS011;68526;44.600;26.032;2024-03-06T01:09:42;29.45;;;17.40;;
79122;SDS011;68526;44.600;26.032;2024-03-06T01:09:58;30.98;;;17.83;;
79122;SDS011;68526;44.600;26.032;2024-03-06T01:10:14;33.65;;;18.67;;
79122;SDS011;68526;44.600;26.032;2024-03-06T01:10:30;31.92;;;18.27;;
79122;SDS011;68526;44.600;26.032;2024-03-06T01:10:46;29.58;;;17.35;;
79122;SDS011;68526;44.600;26.032;2024-03-06T01:11:03;29.85;;;17.23;;
79122;SDS011;68526;44.600;26.032;2024-03-06T01:11:20;31.35;;;17.98;;
79122;SDS011;68526;44.600;26.032;2024-03-06T01:11:36;30.83;;;17.35;;
79122;SDS011;68526;44.600;26.032;2024-03-06T01:11:52;30.57;;;17.40;;
79122;SDS011;68526;44.600;26.032;2024-03-06T01:12:08;30.85;;;18.00;;
79122;SDS011;68526;44.600;26.032;2024-03-06T01:12:26;31.95;;;18.25;;
79122;SDS011;68526;44.600;26.032;2024-03-06T01:12:42;34.90;;;19.00;;
79122;SDS011;68526;44.600;26.032;2024-03-06T01:13:00;33.20;;;18.23;;
79122;SDS011;68526;44.600;26.032;2024-03-06T01:13:16;31.77;;;17.75;;
79122;SDS011;68526;44.600;26.032;2024-03-06T01:13:32;31.45;;;17.83;;
79122;SDS011;68526;44.600;26.032;2024-03-06T01:13:48;33.45;;;18.52;;
79122;SDS011;68526;44.600;26.032;2024-03-06T01:14:04;34.67;;;18.48;;
79122;SDS011;68526;44.600;26.032;2024-03-06T01:14:20;32.22;;;18.30;;
79122;SDS011;68526;44.600;26.032;2024-03-06T01:14:36;33.15;;;18.73;;
79122;SDS011;68526;44.600;26.032;2024-03-06T01:14:53;34.38;;;18.63;;
79122;SDS011;68526;44.600;26.032;2024-03-06T01:15:09;31.58;;;18.08;;
79122;SDS011;68526;44.600;26.032;2024-03-06T01:15:25;31.48;;;17.85;;
79122;SDS011;68526;44.600;26.032;2024-03-06T01:15:41;31.88;;;17.45;;
79122;SDS011;68526;44.600;26.032;2024-03-06T01:15:57;30.83;;;17.60;;
79122;SDS011;68526;44.600;26.032;2024-03-06T01:16:13;31.50;;;18.15;;
79122;SDS011;68526;44.600;26.032;2024-03-06T01:16:29;34.60;;;18.23;;
79122;SDS011;68526;44.600;26.032;2024-03-06T01:16:46;34.30;;;18.63;;
79122;SDS011;68526;44.600;26.032;2024-03-06T01:17:02;32.20;;;18.83;;
79122;SDS011;68526;44.600;26.032;2024-03-06T01:17:18;31.58;;;18.88;;
79122;SDS011;68526;44.600;26.032;2024-03-06T01:17:34;32.40;;;18.27;;
79122;SDS011;68526;44.600;26.032;2024-03-06T01:17:50;33.03;;;17.35;;
79122;SDS011;68526;44.600;26.032;2024-03-06T01:18:08;29.92;;;16.67;;
79122;SDS011;68526;44.600;26.032;2024-03-06T01:18:24;28.50;;;17.00;;
79122;SDS011;68526;44.600;26.032;2024-03-06T01:18:41;30.00;;;17.63;;
79122;SDS011;68526;44.600;26.032;2024-03-06T01:18:57;31.92;;;17.52;;
79122;SDS011;68526;44.600;26.032;2024-03-06T01:19:13;32.30;;;17.30;;
79122;SDS011;68526;44.600;26.032;2024-03-06T01:19:29;31.67;;;17.33;;
79122;SDS011;68526;44.600;26.032;2024-03-06T01:19:45;31.73;;;17.63;;
79122;SDS011;68526;44.600;26.032;2024-03-06T01:20:01;33.43;;;17.80;;
79122;SDS011;68526;44.600;26.032;2024-03-06T01:20:21;35.53;;;18.55;;
79122;SDS011;68526;44.600;26.032;2024-03-06T01:20:37;33.70;;;18.50;;
79122;SDS011;68526;44.600;26.032;2024-03-06T01:20:53;30.85;;;17.88;;
79122;SDS011;68526;44.600;26.032;2024-03-06T01:21:09;30.95;;;17.80;;
79122;SDS011;68526;44.600;26.032;2024-03-06T01:21:25;30.15;;;17.88;;
79122;SDS011;68526;44.600;26.032;2024-03-06T01:21:41;29.95;;;17.77;;
79122;SDS011;68526;44.600;26.032;2024-03-06T01:21:59;30.65;;;17.98;;
79122;SDS011;68526;44.600;26.032;2024-03-06T01:22:14;33.15;;;18.10;;
79122;SDS011;68526;44.600;26.032;2024-03-06T01:22:31;36.13;;;17.90;;
79122;SDS011;68526;44.600;26.032;2024-03-06T01:22:47;35.78;;;17.75;;
79122;SDS011;68526;44.600;26.032;2024-03-06T01:23:03;33.75;;;17.67;;
79122;SDS011;68526;44.600;26.032;2024-03-06T01:23:19;32.13;;;18.13;;
79122;SDS011;68526;44.600;26.032;2024-03-06T01:23:35;31.48;;;18.35;;
79122;SDS011;68526;44.600;26.032;2024-03-06T01:23:52;32.58;;;18.27;;
79122;SDS011;68526;44.600;26.032;2024-03-06T01:24:08;32.08;;;17.85;;
79122;SDS011;68526;44.600;26.032;2024-03-06T01:24:24;30.00;;;17.13;;
79122;SDS011;68526;44.600;26.032;2024-03-06T01:24:40;30.20;;;17.60;;
79122;SDS011;68526;44.600;26.032;2024-03-06T01:24:56;31.40;;;17.88;;
79122;SDS011;68526;44.600;26.032;2024-03-06T01:25:12;30.45;;;17.95;;
79122;SDS011;68526;44.600;26.032;2024-03-06T01:25:28;30.08;;;17.15;;
79122;SDS011;68526;44.600;26.032;2024-03-06T01:25:44;30.57;;;17.20;;
79122;SDS011;68526;44.600;26.032;2024-03-06T01:26:01;31.35;;;18.05;;
79122;SDS011;68526;44.600;26.032;2024-03-06T01:26:17;30.85;;;17.88;;
79122;SDS011;68526;44.600;26.032;2024-03-06T01:26:33;33.45;;;17.55;;
79122;SDS011;68526;44.600;26.032;2024-03-06T01:26:49;34.35;;;17.83;;
79122;SDS011;68526;44.600;26.032;2024-03-06T01:27:05;31.67;;;17.52;;
79122;SDS011;68526;44.600;26.032;2024-03-06T01:27:22;30.27;;;17.33;;
79122;SDS011;68526;44.600;26.032;2024-03-06T01:27:38;30.13;;;17.63;;
79122;SDS011;68526;44.600;26.032;2024-03-06T01:27:55;30.90;;;17.50;;
79122;SDS011;68526;44.600;26.032;2024-03-06T01:28:10;31.67;;;17.60;;
79122;SDS011;68526;44.600;26.032;2024-03-06T01:28:26;32.95;;;17.40;;
79122;SDS011;68526;44.600;26.032;2024-03-06T01:28:43;32.97;;;17.80;;
79122;SDS011;68526;44.600;26.032;2024-03-06T01:28:59;31.70;;;18.55;;
79122;SDS011;68526;44.600;26.032;2024-03-06T01:29:15;31.05;;;18.33;;
79122;SDS011;68526;44.600;26.032;2024-03-06T01:29:32;30.05;;;17.80;;
79122;SDS011;68526;44.600;26.032;2024-03-06T01:29:48;29.83;;;17.35;;
79122;SDS011;68526;44.600;26.032;2024-03-06T01:30:06;30.15;;;17.65;;
79122;SDS011;68526;44.600;26.032;2024-03-06T01:30:23;31.55;;;18.67;;
79122;SDS011;68526;44.600;26.032;2024-03-06T01:30:39;31.92;;;18.25;;
79122;SDS011;68526;44.600;26.032;2024-03-06T01:30:55;27.35;;;16.73;;
79122;SDS011;68526;44.600;26.032;2024-03-06T01:31:11;28.77;;;17.63;;
79122;SDS011;68526;44.600;26.032;2024-03-06T01:31:27;31.48;;;18.13;;
79122;SDS011;68526;44.600;26.032;2024-03-06T01:31:43;29.55;;;17.27;;
79122;SDS011;68526;44.600;26.032;2024-03-06T01:32:01;27.40;;;17.42;;
79122;SDS011;68526;44.600;26.032;2024-03-06T01:32:17;28.70;;;17.30;;
79122;SDS011;68526;44.600;26.032;2024-03-06T01:32:34;29.97;;;17.03;;
79122;SDS011;68526;44.600;26.032;2024-03-06T01:32:50;29.40;;;17.10;;
79122;SDS011;68526;44.600;26.032;2024-03-06T01:33:07;30.85;;;17.20;;
79122;SDS011;68526;44.600;26.032;2024-03-06T01:33:24;30.42;;;16.83;;
79122;SDS011;68526;44.600;26.032;2024-03-06T01:33:40;27.80;;;16.83;;
79122;SDS011;68526;44.600;26.032;2024-03-06T01:33:56;29.38;;;17.60;;
79122;SDS011;68526;44.600;26.032;2024-03-06T01:34:14;30.27;;;17.73;;